createdAt,value
2022-10-31T00:01:29.625Z,101156.63
2022-10-31T00:04:11.750Z,101167.19
2022-10-31T00:06:52.096Z,101163.31
2022-10-31T00:09:31.036Z,101164.47
2022-10-31T00:12:14.756Z,101175.13
2022-10-31T00:14:55.813Z,101168.94
2022-10-31T00:17:38.087Z,101176.94
2022-10-31T00:20:32.162Z,101175.41
2022-10-31T00:23:11.879Z,101187.75
2022-10-31T00:25:52.272Z,101185.22
2022-10-31T00:28:32.981Z,101185.22
2022-10-31T00:31:12.844Z,101191.00
2022-10-31T00:33:54.202Z,101192.53
2022-10-31T00:36:35.596Z,101200.09
2022-10-31T00:39:17.008Z,101196.44
2022-10-31T00:41:58.415Z,101190.13
2022-10-31T00:44:39.836Z,101195.13
2022-10-31T00:47:30.265Z,101230.63
2022-10-31T00:50:10.684Z,101202.81
2022-10-31T00:52:53.841Z,101194.81
2022-10-31T00:55:35.329Z,101202.66
2022-10-31T00:58:16.809Z,101202.50
2022-10-31T01:00:59.689Z,101201.38
2022-10-31T01:03:50.323Z,101236.69
2022-10-31T01:06:32.376Z,101207.53
2022-10-31T01:09:13.644Z,101211.59
2022-10-31T01:11:52.202Z,101211.59
2022-10-31T01:14:32.321Z,101212.88
2022-10-31T01:17:13.793Z,101215.25
2022-10-31T01:19:55.078Z,101208.09
2022-10-31T01:22:34.985Z,101208.94
2022-10-31T01:25:17.306Z,101201.78
2022-10-31T01:27:59.971Z,101198.13
2022-10-31T01:30:41.701Z,101192.63
2022-10-31T01:33:25.103Z,101186.16
2022-10-31T01:36:13.871Z,101184.47
2022-10-31T01:38:57.236Z,101183.31
2022-10-31T01:41:39.335Z,101173.34
2022-10-31T01:44:38.008Z,101175.69
2022-10-31T01:47:18.874Z,101173.72
2022-10-31T01:50:05.954Z,101155.72
2022-10-31T01:52:48.662Z,101154.44
2022-10-31T01:55:31.810Z,101129.13
2022-10-31T01:58:16.935Z,101123.84
2022-10-31T02:01:05.031Z,101098.56
2022-10-31T02:04:09.073Z,101077.56
2022-10-31T02:06:51.307Z,101058.59
2022-10-31T02:09:31.666Z,101055.44
2022-10-31T02:12:12.229Z,101041.25
2022-10-31T02:14:57.610Z,101034.63
2022-10-31T02:17:41.293Z,101027.31
2022-10-31T02:20:22.582Z,101027.47
2022-10-31T02:23:25.032Z,101032.09
2022-10-31T02:26:27.986Z,101031.25
2022-10-31T02:29:15.500Z,101023.41
2022-10-31T02:31:56.732Z,101033.25
2022-10-31T02:34:38.380Z,101035.25
2022-10-31T02:37:20.343Z,101026.56
2022-10-31T02:40:04.184Z,101031.06
2022-10-31T02:46:03.888Z,101049.56
2022-10-31T02:48:47.091Z,101053.88
2022-10-31T02:51:30.522Z,101051.38
2022-10-31T02:54:20.017Z,101055.22
2022-10-31T02:57:19.333Z,101059.00
2022-10-31T03:00:00.709Z,101063.00
2022-10-31T03:02:44.116Z,101076.47
2022-10-31T03:05:38.296Z,101081.44
2022-10-31T03:08:21.596Z,101095.09
2022-10-31T03:11:04.292Z,101108.88
2022-10-31T03:13:47.545Z,101117.34
2022-10-31T03:16:31.139Z,101124.16
2022-10-31T03:19:13.057Z,101134.44
2022-10-31T03:21:54.820Z,101139.22
2022-10-31T03:24:37.877Z,101142.34
2022-10-31T03:27:20.878Z,101155.16
2022-10-31T03:30:05.088Z,101159.13
2022-10-31T03:32:53.442Z,101168.13
2022-10-31T03:35:37.214Z,101169.84
2022-10-31T03:38:17.646Z,101157.34
2022-10-31T03:41:00.321Z,101154.00
2022-10-31T03:43:42.658Z,101146.31
2022-10-31T03:46:24.504Z,101142.97
2022-10-31T03:49:08.865Z,101145.78
2022-10-31T03:51:51.397Z,101145.22
2022-10-31T03:54:34.191Z,101154.53
2022-10-31T03:57:28.810Z,101155.50
2022-10-31T04:00:10.503Z,101161.16
2022-10-31T04:03:01.772Z,101155.44
2022-10-31T04:05:45.984Z,101159.09
2022-10-31T04:08:28.693Z,101158.53
2022-10-31T04:11:31.939Z,101166.66
2022-10-31T04:14:35.247Z,101161.66
2022-10-31T04:17:17.745Z,101158.47
2022-10-31T04:20:13.930Z,101150.78
2022-10-31T04:22:55.031Z,101148.25
2022-10-31T04:25:36.546Z,101145.91
2022-10-31T04:31:04.652Z,101145.19
2022-10-31T04:33:46.091Z,101139.47
2022-10-31T04:36:30.512Z,101140.72
2022-10-31T04:39:10.186Z,101139.34
2022-10-31T04:42:00.942Z,101137.84
2022-10-31T04:44:42.382Z,101141.59
2022-10-31T04:47:46.529Z,101147.53
2022-10-31T04:50:41.008Z,101142.66
2022-10-31T04:53:22.343Z,101151.78
2022-10-31T04:56:24.541Z,101155.84
2022-10-31T04:59:10.401Z,101149.00
2022-10-31T05:02:09.848Z,101163.72
2022-10-31T05:05:07.124Z,101164.16
2022-10-31T05:07:59.272Z,101187.69
2022-10-31T05:10:41.356Z,101149.06
2022-10-31T05:13:42.613Z,101153.00
2022-10-31T05:16:27.632Z,101157.78
2022-10-31T05:19:40.666Z,101154.56
2022-10-31T05:23:36.186Z,101147.16
2022-10-31T05:26:20.184Z,101159.91
2022-10-31T05:29:03.211Z,101161.03
2022-10-31T05:31:44.575Z,101166.78
2022-10-31T05:34:37.734Z,101168.88
2022-10-31T05:37:38.350Z,101172.78
2022-10-31T05:40:21.191Z,101165.81
2022-10-31T05:43:23.092Z,101160.09
2022-10-31T05:46:24.276Z,101163.03
2022-10-31T05:49:35.579Z,101161.63
2022-10-31T05:52:57.338Z,101168.88
2022-10-31T05:55:49.439Z,101167.34
2022-10-31T05:58:35.635Z,101170.16
2022-10-31T06:01:21.959Z,101174.09
2022-10-31T06:04:03.230Z,101181.22
2022-10-31T06:06:44.819Z,101170.72
2022-10-31T06:09:28.171Z,101166.53
2022-10-31T06:12:21.510Z,101164.97
2022-10-31T06:15:23.516Z,101171.28
2022-10-31T06:18:05.582Z,101170.56
2022-10-31T06:20:50.776Z,101169.03
2022-10-31T06:23:32.108Z,101168.22
2022-10-31T06:26:34.271Z,101170.44
2022-10-31T06:29:14.689Z,101176.75
2022-10-31T06:32:14.741Z,101176.88
2022-10-31T06:35:01.366Z,101173.53
2022-10-31T06:37:44.351Z,101177.28
2022-10-31T06:40:43.351Z,101183.56
2022-10-31T06:43:35.527Z,101182.72
2022-10-31T06:46:36.189Z,101192.53
2022-10-31T06:49:35.141Z,101195.31
2022-10-31T06:52:18.175Z,101196.44
2022-10-31T06:54:58.540Z,101203.56
2022-10-31T06:57:39.340Z,101195.47
2022-10-31T07:00:22.914Z,101198.94
2022-10-31T07:03:12.911Z,101203.16
2022-10-31T07:05:53.805Z,101210.97
2022-10-31T07:08:36.191Z,101208.22
2022-10-31T07:11:26.603Z,101241.78
2022-10-31T07:14:14.082Z,101206.25
2022-10-31T07:17:08.454Z,101196.31
2022-10-31T07:19:53.675Z,101195.19
2022-10-31T07:22:36.739Z,101188.75
2022-10-31T07:25:57.625Z,101172.69
2022-10-31T07:28:48.895Z,101174.06
2022-10-31T07:31:33.592Z,101162.47
2022-10-31T07:34:26.424Z,101165.72
2022-10-31T07:37:30.484Z,101172.41
2022-10-31T07:40:13.674Z,101168.47
2022-10-31T07:42:56.441Z,101157.28
2022-10-31T07:45:57.927Z,101156.88
2022-10-31T07:49:18.014Z,101153.63
2022-10-31T07:52:36.859Z,101148.56
2022-10-31T07:55:56.112Z,101137.09
2022-10-31T07:58:43.884Z,101107.94
2022-10-31T08:01:25.355Z,101083.72
2022-10-31T08:04:26.501Z,101062.72
2022-10-31T08:07:42.567Z,101051.88
2022-10-31T08:10:33.977Z,101039.81
2022-10-31T08:13:15.256Z,101016.63
2022-10-31T08:16:04.517Z,100988.16
2022-10-31T08:18:59.744Z,100955.84
2022-10-31T08:21:43.715Z,100933.31
2022-10-31T08:24:25.218Z,100904.47
2022-10-31T08:27:07.121Z,100880.78
2022-10-31T08:29:49.526Z,100850.91
2022-10-31T08:32:30.967Z,100818.31
2022-10-31T08:35:21.488Z,100854.56
2022-10-31T08:38:32.493Z,100780.63
2022-10-31T08:41:13.882Z,100757.63
2022-10-31T08:43:55.144Z,100739.97
2022-10-31T08:46:36.737Z,100741.19
2022-10-31T08:49:29.744Z,100736.50
2022-10-31T08:52:14.424Z,100728.47
2022-10-31T08:54:57.335Z,100722.41
2022-10-31T08:58:36.311Z,100724.31
2022-10-31T09:01:23.794Z,100735.44
2022-10-31T09:04:06.199Z,100747.38
2022-10-31T09:07:19.665Z,100779.25
2022-10-31T09:09:50.333Z,100810.06
2022-10-31T09:12:45.151Z,100851.94
2022-10-31T09:15:52.327Z,100880.06
2022-10-31T09:18:41.341Z,100914.22
2022-10-31T09:21:35.790Z,100934.22
2022-10-31T09:24:19.113Z,100976.38
2022-10-31T09:27:00.057Z,101003.44
2022-10-31T09:29:45.278Z,101019.81
2022-10-31T09:32:26.849Z,101054.56
2022-10-31T09:35:09.730Z,101075.66
2022-10-31T09:37:49.574Z,101082.94
2022-10-31T09:40:31.923Z,101100.31
2022-10-31T09:43:15.959Z,101086.16
2022-10-31T09:46:00.621Z,101080.88
2022-10-31T09:48:57.218Z,101122.22
2022-10-31T09:51:52.967Z,101405.53
2022-10-31T09:54:40.757Z,101373.69
2022-10-31T09:57:26.077Z,101350.91
2022-10-31T10:00:08.913Z,101330.13
2022-10-31T10:02:59.366Z,101306.16
2022-10-31T10:05:41.713Z,101278.34
2022-10-31T10:08:28.712Z,101258.75
2022-10-31T10:11:33.658Z,101233.75
2022-10-31T10:14:26.309Z,101230.19
2022-10-31T10:17:18.518Z,101226.97
2022-10-31T10:20:12.737Z,101207.34
2022-10-31T10:22:53.456Z,101202.56
2022-10-31T10:25:35.611Z,101194.13
2022-10-31T10:28:19.969Z,101171.22
2022-10-31T10:31:01.686Z,101172.41
2022-10-31T10:33:45.907Z,101151.59
2022-10-31T10:36:29.939Z,101144.88
2022-10-31T10:39:13.209Z,101140.19
2022-10-31T10:42:12.899Z,101131.03
2022-10-31T10:45:33.130Z,101132.34
2022-10-31T10:48:16.507Z,101125.66
2022-10-31T10:50:59.193Z,101128.66
2022-10-31T10:54:00.478Z,101118.41
2022-10-31T10:56:46.505Z,101116.69
2022-10-31T10:59:39.847Z,101100.88
2022-10-31T11:02:24.271Z,101101.13
2022-10-31T11:05:15.592Z,101105.00
2022-10-31T11:08:00.893Z,101101.22
2022-10-31T11:11:21.033Z,101099.22
2022-10-31T11:14:04.111Z,101097.63
2022-10-31T11:16:49.330Z,101086.44
2022-10-31T11:19:30.016Z,101092.16
2022-10-31T11:22:17.054Z,101079.66
2022-10-31T11:24:57.697Z,101087.53
2022-10-31T11:27:39.364Z,101090.47
2022-10-31T11:30:21.477Z,101085.22
2022-10-31T11:33:02.211Z,101091.59
2022-10-31T11:35:43.273Z,101091.88
2022-10-31T11:38:26.623Z,101083.47
2022-10-31T11:41:10.977Z,101081.88
2022-10-31T11:43:55.429Z,101084.53
2022-10-31T11:46:39.344Z,101079.06
2022-10-31T11:49:23.005Z,101075.38
2022-10-31T11:52:24.297Z,101093.03
2022-10-31T11:55:17.913Z,101094.50
2022-10-31T11:57:58.011Z,101091.25
2022-10-31T12:00:41.778Z,101104.81
2022-10-31T12:03:42.823Z,101092.94
2022-10-31T12:06:23.802Z,101086.28
2022-10-31T12:09:12.642Z,101083.06
2022-10-31T12:11:53.715Z,101080.41
2022-10-31T12:14:34.010Z,101081.78
2022-10-31T12:17:16.561Z,101082.03
2022-10-31T12:20:01.289Z,101077.44
2022-10-31T12:22:42.598Z,101089.50
2022-10-31T12:25:30.385Z,101084.06
2022-10-31T12:28:13.671Z,101085.44
2022-10-31T12:30:55.120Z,101078.22
2022-10-31T12:33:41.090Z,101076.66
2022-10-31T12:36:23.477Z,101088.75
2022-10-31T12:39:18.205Z,101096.75
2022-10-31T12:42:00.603Z,101090.56
2022-10-31T12:44:51.822Z,101103.34
2022-10-31T12:47:46.901Z,101124.53
2022-10-31T12:50:33.739Z,101136.66
2022-10-31T12:53:20.601Z,101135.94
2022-10-31T12:56:04.338Z,101141.16
2022-10-31T12:59:05.944Z,101158.03
2022-10-31T13:01:49.038Z,101157.25
2022-10-31T13:04:37.547Z,101143.84
2022-10-31T13:07:32.033Z,101137.06
2022-10-31T13:10:17.407Z,101152.03
2022-10-31T13:12:59.550Z,101142.94
2022-10-31T13:15:43.264Z,101133.16
2022-10-31T13:18:27.357Z,101119.28
2022-10-31T13:21:10.059Z,101123.31
2022-10-31T13:23:52.665Z,101110.03
2022-10-31T13:26:37.747Z,101102.22
2022-10-31T13:29:33.029Z,101088.09
2022-10-31T13:32:13.255Z,101076.03
2022-10-31T13:34:55.139Z,101057.41
2022-10-31T13:37:36.758Z,101051.53
2022-10-31T13:40:44.676Z,101039.88
2022-10-31T13:43:31.561Z,101035.34
2022-10-31T13:46:23.857Z,101033.97
2022-10-31T13:49:05.602Z,101018.59
2022-10-31T13:51:47.811Z,101010.84
2022-10-31T13:54:35.255Z,100998.28
2022-10-31T13:57:18.299Z,100985.81
2022-10-31T14:00:01.889Z,100970.47
2022-10-31T14:02:55.166Z,100970.28
2022-10-31T14:05:35.508Z,100968.72
2022-10-31T14:08:20.085Z,100968.28
2022-10-31T14:11:01.333Z,100953.53
2022-10-31T14:13:45.221Z,100957.41
2022-10-31T14:16:27.098Z,100945.63
2022-10-31T14:19:07.839Z,100939.56
2022-10-31T14:21:48.582Z,100947.25
2022-10-31T14:24:34.533Z,100951.75
2022-10-31T14:27:36.972Z,100960.63
2022-10-31T14:30:23.361Z,100952.03
2022-10-31T14:33:11.391Z,100958.22
2022-10-31T14:35:56.944Z,100948.69
2022-10-31T14:38:40.409Z,100955.47
2022-10-31T14:41:26.088Z,100957.69
2022-10-31T14:44:20.465Z,100967.50
2022-10-31T14:47:07.216Z,100961.28
2022-10-31T14:50:05.002Z,100953.81
2022-10-31T14:52:49.983Z,100951.66
2022-10-31T14:55:53.576Z,100956.56
2022-10-31T14:58:43.670Z,100953.69
2022-10-31T15:01:27.514Z,100960.44
2022-10-31T15:04:22.870Z,100957.47
2022-10-31T15:07:07.375Z,100956.50
2022-10-31T15:09:56.644Z,100958.16
2022-10-31T15:12:39.415Z,100970.19
2022-10-31T15:15:19.435Z,100983.22
2022-10-31T15:18:02.099Z,100980.50
2022-10-31T15:20:55.966Z,100990.09
2022-10-31T15:23:34.833Z,100993.13
2022-10-31T15:26:17.539Z,101000.84
2022-10-31T15:29:03.216Z,101002.06
2022-10-31T15:32:17.780Z,101006.31
2022-10-31T15:35:12.211Z,101014.72
2022-10-31T15:37:52.969Z,101025.94
2022-10-31T15:40:38.871Z,101033.94
2022-10-31T15:54:22.045Z,101027.88
2022-10-31T15:57:04.973Z,101044.69
2022-10-31T15:59:47.403Z,101051.56
2022-10-31T16:02:28.207Z,101063.09
2022-10-31T16:05:18.382Z,101082.31
2022-10-31T16:07:59.249Z,101078.19
2022-10-31T16:10:39.786Z,101077.72
2022-10-31T16:13:30.270Z,101081.94
2022-10-31T16:19:18.383Z,101100.69
2022-10-31T16:22:04.290Z,101111.72
2022-10-31T16:25:03.223Z,101116.25
2022-10-31T16:27:53.997Z,101121.47
2022-10-31T16:30:45.459Z,101123.28
2022-10-31T16:33:30.158Z,101124.81
2022-10-31T16:36:36.298Z,101124.81
2022-10-31T16:39:31.294Z,101137.88
2022-10-31T16:42:12.440Z,101159.28
2022-10-31T16:44:53.806Z,101166.97
2022-10-31T16:47:35.236Z,101171.16
2022-10-31T16:50:17.935Z,101177.66
2022-10-31T16:53:15.260Z,101175.66
2022-10-31T16:55:57.669Z,101176.97
2022-10-31T16:58:42.051Z,101171.28
2022-10-31T17:01:23.150Z,101183.84
2022-10-31T17:04:04.557Z,101177.97
2022-10-31T17:06:46.036Z,101179.97
2022-10-31T17:09:26.303Z,101193.38
2022-10-31T17:12:06.259Z,101197.06
2022-10-31T17:14:49.199Z,101187.34
2022-10-31T17:17:31.506Z,101197.69
2022-10-31T17:20:14.936Z,101192.88
2022-10-31T17:22:56.270Z,101199.38
2022-10-31T17:25:36.647Z,101206.91
2022-10-31T17:28:20.436Z,101196.22
2022-10-31T17:31:01.769Z,101197.69
2022-10-31T17:33:43.129Z,100882.28
2022-10-31T17:36:23.683Z,100921.38
2022-10-31T17:39:07.329Z,100928.22
2022-10-31T17:41:48.632Z,100934.56
2022-10-31T17:44:30.394Z,100931.94
2022-10-31T17:47:11.898Z,100926.59
2022-10-31T17:50:07.079Z,100903.00
2022-10-31T17:52:47.095Z,100905.56
2022-10-31T17:55:30.523Z,100899.19
2022-10-31T17:58:15.273Z,100888.84
2022-10-31T18:00:56.121Z,100893.84
2022-10-31T18:03:37.464Z,100902.19
2022-10-31T18:06:17.375Z,100873.78
2022-10-31T18:09:03.070Z,100835.84
2022-10-31T18:11:46.255Z,100818.31
2022-10-31T18:14:26.325Z,100825.84
2022-10-31T18:17:08.650Z,100874.13
2022-10-31T18:19:49.005Z,100909.53
2022-10-31T18:22:30.531Z,100919.88
2022-10-31T18:25:11.994Z,100914.53
2022-10-31T18:27:55.263Z,100909.84
2022-10-31T18:30:35.411Z,100900.69
2022-10-31T18:33:17.140Z,100884.28
2022-10-31T18:36:04.383Z,100892.50
2022-10-31T18:38:45.814Z,100893.38
2022-10-31T18:41:27.752Z,100876.97
2022-10-31T18:44:08.221Z,100862.13
2022-10-31T18:46:49.539Z,100866.13
2022-10-31T18:49:33.406Z,100864.44
2022-10-31T18:52:14.100Z,100863.13
2022-10-31T18:54:56.356Z,100855.13
2022-10-31T18:57:37.835Z,100848.78
2022-10-31T19:00:18.790Z,100841.78
2022-10-31T19:03:01.455Z,100840.94
2022-10-31T19:05:42.609Z,100833.78
2022-10-31T19:08:25.044Z,100808.72
2022-10-31T19:11:06.444Z,100802.06
2022-10-31T19:13:44.859Z,100800.56
2022-10-31T19:16:26.337Z,100790.69
2022-10-31T19:19:06.448Z,100781.38
2022-10-31T19:21:51.359Z,100762.00
2022-10-31T19:24:33.077Z,100750.00
2022-10-31T19:27:16.822Z,100734.31
2022-10-31T19:29:56.825Z,100718.28
2022-10-31T19:32:36.655Z,100707.59
2022-10-31T19:35:15.503Z,100681.56
2022-10-31T19:37:57.422Z,100647.34
2022-10-31T19:40:38.326Z,100628.81
2022-10-31T19:43:19.163Z,100612.78
2022-10-31T19:46:02.440Z,100597.59
2022-10-31T19:48:44.517Z,100574.91
2022-10-31T19:51:34.900Z,100592.75
2022-10-31T19:54:19.210Z,100540.06
2022-10-31T19:56:59.119Z,100514.47
2022-10-31T19:59:39.467Z,100503.59
2022-10-31T20:02:23.309Z,100481.72
2022-10-31T20:05:03.373Z,100471.22
2022-10-31T20:07:44.730Z,100456.84
2022-10-31T20:10:27.605Z,100447.44
2022-10-31T20:13:09.060Z,100435.09
2022-10-31T20:15:47.021Z,100429.75
2022-10-31T20:18:29.573Z,100418.06
2022-10-31T20:21:11.613Z,100418.72
2022-10-31T20:24:33.777Z,100397.78
2022-10-31T20:27:18.163Z,100388.31
2022-10-31T20:30:11.678Z,100371.25
2022-10-31T20:32:51.021Z,100377.63
2022-10-31T20:35:32.683Z,100392.38
2022-10-31T20:38:16.806Z,100382.50
2022-10-31T20:41:09.838Z,100415.03
2022-10-31T20:43:53.040Z,100383.69
2022-10-31T20:46:31.356Z,100386.66
2022-10-31T20:49:25.611Z,100395.03
2022-10-31T20:52:07.102Z,100389.50
2022-10-31T20:54:50.347Z,100399.56
2022-10-31T20:57:43.965Z,100393.19
2022-10-31T21:00:25.259Z,100390.34
2022-10-31T21:03:07.607Z,100383.69
2022-10-31T21:05:53.863Z,100379.72
2022-10-31T21:08:39.643Z,100383.88
2022-10-31T21:11:22.008Z,100368.38
2022-10-31T21:14:01.828Z,100363.50
2022-10-31T21:16:42.614Z,100352.81
2022-10-31T21:19:37.510Z,100367.84
2022-10-31T21:22:17.842Z,100363.69
2022-10-31T21:24:58.297Z,100358.44
2022-10-31T21:27:51.841Z,100356.59
2022-10-31T21:30:32.190Z,100347.38
2022-10-31T21:33:12.369Z,100347.75
2022-10-31T21:35:56.451Z,100342.59
2022-10-31T21:38:36.500Z,100335.88
2022-10-31T21:41:19.033Z,100333.94
2022-10-31T21:43:59.409Z,100341.50
2022-10-31T21:46:39.904Z,100350.50
2022-10-31T21:49:21.428Z,100353.81
2022-10-31T21:52:03.097Z,100365.28
2022-10-31T21:55:20.138Z,100359.81
2022-10-31T21:58:07.510Z,100363.69
2022-10-31T22:01:22.449Z,100355.03
2022-10-31T22:04:06.913Z,100348.88
2022-10-31T22:06:46.918Z,100345.53
2022-10-31T22:09:29.273Z,100340.09
2022-10-31T22:12:09.918Z,100333.63
2022-10-31T22:14:52.037Z,100322.19
2022-10-31T22:17:32.508Z,100316.88
2022-10-31T22:20:14.909Z,100309.03
2022-10-31T22:22:57.307Z,100315.44
2022-10-31T22:25:56.344Z,100306.31
2022-10-31T22:28:40.589Z,100293.63
2022-10-31T22:31:22.066Z,100279.63
2022-10-31T22:34:02.386Z,100275.31
2022-10-31T22:36:44.234Z,100265.16
2022-10-31T22:39:26.133Z,100258.34
2022-10-31T22:42:06.573Z,100255.53
2022-10-31T22:44:47.907Z,100242.00
2022-10-31T22:47:28.744Z,100226.00
2022-10-31T22:50:10.486Z,100226.66
2022-10-31T22:52:50.563Z,100226.00
2022-10-31T22:55:32.951Z,100223.72
2022-10-31T22:58:14.343Z,100219.03
2022-10-31T23:00:54.882Z,100222.34
2022-10-31T23:03:37.258Z,100220.22
2022-10-31T23:06:30.051Z,100276.28
2022-10-31T23:09:11.816Z,100229.59
2022-10-31T23:11:51.804Z,100227.75
2022-10-31T23:14:32.590Z,100230.28
2022-10-31T23:17:17.619Z,100226.50
2022-10-31T23:19:58.639Z,100221.34
2022-10-31T23:22:40.745Z,100223.53
2022-10-31T23:25:40.679Z,100219.41
2022-10-31T23:28:21.041Z,100220.22
2022-10-31T23:31:01.848Z,100213.41
2022-10-31T23:33:46.231Z,100209.09
2022-10-31T23:36:26.979Z,100209.25
2022-10-31T23:39:08.384Z,100200.97
2022-10-31T23:41:50.746Z,100197.09
2022-10-31T23:44:31.202Z,100193.16
2022-10-31T23:47:12.537Z,100191.66
2022-10-31T23:49:54.903Z,100188.00
2022-10-31T23:52:35.315Z,100195.34
2022-10-31T23:55:15.144Z,100191.75
2022-10-31T23:57:55.935Z,100188.75
